sensor_id;sensor_type;location;lat;lon;timestamp;pressure;altitude;pressure_sealevel;temperature;humidity
57904;BME280;43720;47.462;19.030;2023-05-23T03:55:06;100050.59;;;14.81;100.00
57904;BME280;43720;47.462;19.030;2023-05-23T03:58:10;100051.41;;;14.86;100.00
57904;BME280;43720;47.462;19.030;2023-05-23T04:01:13;100046.87;;;15.05;100.00
57904;BME280;43720;47.462;19.030;2023-05-23T04:04:16;100046.03;;;15.03;100.00
57904;BME280;43720;47.462;19.030;2023-05-23T04:07:19;100050.44;;;15.00;100.00
57904;BME280;43720;47.462;19.030;2023-05-23T04:10:21;100048.59;;;15.08;100.00
57904;BME280;43720;47.462;19.030;2023-05-23T04:13:24;100053.81;;;15.14;100.00
57904;BME280;43720;47.462;19.030;2023-05-23T04:16:27;100053.81;;;15.15;100.00
57904;BME280;43720;47.462;19.030;2023-05-23T04:19:34;100054.50;;;15.33;100.00
57904;BME280;43720;47.462;19.030;2023-05-23T04:22:37;100062.31;;;15.42;100.00
57904;BME280;43720;47.462;19.030;2023-05-23T04:25:40;100051.81;;;15.39;100.00
57904;BME280;43720;47.462;19.030;2023-05-23T04:28:43;100043.75;;;15.54;100.00
57904;BME280;43720;47.462;19.030;2023-05-23T04:31:47;100045.41;;;15.61;100.00
57904;BME280;43720;47.462;19.030;2023-05-23T04:34:50;100044.47;;;15.70;100.00
57904;BME280;43720;47.462;19.030;2023-05-23T04:37:56;100047.81;;;15.84;100.00
57904;BME280;43720;47.462;19.030;2023-05-23T04:40:59;100054.72;;;15.93;100.00
57904;BME280;43720;47.462;19.030;2023-05-23T04:44:02;100051.22;;;15.93;100.00
57904;BME280;43720;47.462;19.030;2023-05-23T04:47:07;100050.19;;;16.04;100.00
57904;BME280;43720;47.462;19.030;2023-05-23T04:50:13;100043.03;;;16.14;100.00
57904;BME280;43720;47.462;19.030;2023-05-23T04:53:19;100052.62;;;16.18;100.00
57904;BME280;43720;47.462;19.030;2023-05-23T04:56:21;100057.00;;;16.21;100.00
57904;BME280;43720;47.462;19.030;2023-05-23T04:59:24;100054.34;;;16.22;100.00
57904;BME280;43720;47.462;19.030;2023-05-23T05:02:26;100053.41;;;16.28;100.00
57904;BME280;43720;47.462;19.030;2023-05-23T05:05:29;100049.78;;;16.35;100.00
57904;BME280;43720;47.462;19.030;2023-05-23T05:08:31;100053.13;;;16.45;100.00
57904;BME280;43720;47.462;19.030;2023-05-23T05:11:33;100050.31;;;16.58;100.00
57904;BME280;43720;47.462;19.030;2023-05-23T05:14:37;100051.00;;;16.70;100.00
57904;BME280;43720;47.462;19.030;2023-05-23T05:17:40;100044.78;;;16.75;100.00
57904;BME280;43720;47.462;19.030;2023-05-23T05:20:45;100042.75;;;16.91;100.00
57904;BME280;43720;47.462;19.030;2023-05-23T05:23:49;100042.50;;;17.08;100.00
57904;BME280;43720;47.462;19.030;2023-05-23T05:26:53;100038.81;;;17.17;100.00
57904;BME280;43720;47.462;19.030;2023-05-23T05:29:55;100034.19;;;17.28;100.00
57904;BME280;43720;47.462;19.030;2023-05-23T05:33:06;100050.53;;;17.48;100.00
57904;BME280;43720;47.462;19.030;2023-05-23T05:36:10;100050.44;;;17.54;100.00
57904;BME280;43720;47.462;19.030;2023-05-23T05:39:13;100036.19;;;17.61;96.86
57904;BME280;43720;47.462;19.030;2023-05-23T05:42:16;100037.69;;;17.76;90.82
57904;BME280;43720;47.462;19.030;2023-05-23T05:45:18;100039.19;;;17.90;89.54
57904;BME280;43720;47.462;19.030;2023-05-23T05:48:22;100032.72;;;18.03;87.73
57904;BME280;43720;47.462;19.030;2023-05-23T05:51:25;100036.94;;;18.12;88.61
57904;BME280;43720;47.462;19.030;2023-05-23T05:54:28;100038.41;;;18.25;86.87
57904;BME280;43720;47.462;19.030;2023-05-23T05:57:31;100042.50;;;18.38;86.18
57904;BME280;43720;47.462;19.030;2023-05-23T06:00:34;100032.44;;;18.54;82.66
57904;BME280;43720;47.462;19.030;2023-05-23T06:03:43;100030.53;;;18.61;82.78
57904;BME280;43720;47.462;19.030;2023-05-23T06:06:46;100037.53;;;18.63;88.26
57904;BME280;43720;47.462;19.030;2023-05-23T06:09:48;100033.63;;;18.79;86.08
57904;BME280;43720;47.462;19.030;2023-05-23T06:12:51;100031.78;;;18.83;90.09
57904;BME280;43720;47.462;19.030;2023-05-23T06:15:54;100026.31;;;18.89;85.01
57904;BME280;43720;47.462;19.030;2023-05-23T06:18:57;100029.56;;;19.00;87.29
57904;BME280;43720;47.462;19.030;2023-05-23T06:22:01;100029.16;;;19.16;82.99
57904;BME280;43720;47.462;19.030;2023-05-23T06:25:04;100027.16;;;19.24;80.02
57904;BME280;43720;47.462;19.030;2023-05-23T06:28:08;100020.44;;;19.45;80.91
57904;BME280;43720;47.462;19.030;2023-05-23T06:31:10;100028.34;;;19.46;83.27
57904;BME280;43720;47.462;19.030;2023-05-23T06:34:13;100030.91;;;19.49;82.42
57904;BME280;43720;47.462;19.030;2023-05-23T06:37:15;100033.81;;;19.73;83.42
57904;BME280;43720;47.462;19.030;2023-05-23T06:40:19;100025.84;;;19.73;80.70
57904;BME280;43720;47.462;19.030;2023-05-23T06:43:22;100034.44;;;19.83;80.49
57904;BME280;43720;47.462;19.030;2023-05-23T06:46:25;100027.78;;;19.97;75.35
57904;BME280;43720;47.462;19.030;2023-05-23T06:49:28;100035.66;;;20.00;73.66
57904;BME280;43720;47.462;19.030;2023-05-23T06:52:30;100026.06;;;19.96;75.18
57904;BME280;43720;47.462;19.030;2023-05-23T06:55:33;100023.94;;;20.08;73.80
57904;BME280;43720;47.462;19.030;2023-05-23T06:58:36;100022.63;;;20.22;72.51
57904;BME280;43720;47.462;19.030;2023-05-23T07:01:38;100015.19;;;20.34;72.38
57904;BME280;43720;47.462;19.030;2023-05-23T07:04:41;100019.50;;;20.36;75.30
57904;BME280;43720;47.462;19.030;2023-05-23T07:07:44;100019.19;;;20.47;74.98
57904;BME280;43720;47.462;19.030;2023-05-23T07:10:47;100015.44;;;20.54;76.11
57904;BME280;43720;47.462;19.030;2023-05-23T07:13:50;100013.37;;;20.64;76.68
57904;BME280;43720;47.462;19.030;2023-05-23T07:16:53;100012.28;;;20.69;75.32
57904;BME280;43720;47.462;19.030;2023-05-23T07:19:55;100008.56;;;20.75;75.59
57904;BME280;43720;47.462;19.030;2023-05-23T07:22:58;99997.47;;;20.89;74.33
57904;BME280;43720;47.462;19.030;2023-05-23T07:26:01;100008.88;;;20.92;73.68
57904;BME280;43720;47.462;19.030;2023-05-23T07:29:05;100006.22;;;20.92;73.30
57904;BME280;43720;47.462;19.030;2023-05-23T07:32:08;100005.03;;;21.01;73.75
57904;BME280;43720;47.462;19.030;2023-05-23T07:35:11;100009.81;;;21.16;74.09
57904;BME280;43720;47.462;19.030;2023-05-23T07:38:17;100001.50;;;21.25;74.84
57904;BME280;43720;47.462;19.030;2023-05-23T07:41:20;100000.22;;;21.37;74.02
57904;BME280;43720;47.462;19.030;2023-05-23T07:44:23;100009.03;;;21.39;73.26
57904;BME280;43720;47.462;19.030;2023-05-23T07:47:27;100004.28;;;21.47;72.70
57904;BME280;43720;47.462;19.030;2023-05-23T07:50:29;100003.09;;;21.56;73.92
57904;BME280;43720;47.462;19.030;2023-05-23T07:53:33;100005.53;;;21.62;71.00
57904;BME280;43720;47.462;19.030;2023-05-23T07:56:37;99999.34;;;21.62;72.32
57904;BME280;43720;47.462;19.030;2023-05-23T07:59:41;100000.09;;;21.65;72.61
57904;BME280;43720;47.462;19.030;2023-05-23T08:02:44;99992.59;;;21.77;73.00
57904;BME280;43720;47.462;19.030;2023-05-23T08:05:48;99993.84;;;21.90;72.16
57904;BME280;43720;47.462;19.030;2023-05-23T08:08:51;99997.94;;;21.98;69.14
57904;BME280;43720;47.462;19.030;2023-05-23T08:11:53;99984.28;;;22.08;68.78
57904;BME280;43720;47.462;19.030;2023-05-23T08:14:57;99991.19;;;22.13;68.93
57904;BME280;43720;47.462;19.030;2023-05-23T08:18:01;99981.66;;;22.30;67.67
57904;BME280;43720;47.462;19.030;2023-05-23T08:21:04;99985.50;;;22.44;69.19
57904;BME280;43720;47.462;19.030;2023-05-23T08:24:15;99983.28;;;22.56;68.32
57904;BME280;43720;47.462;19.030;2023-05-23T08:27:19;99984.00;;;22.59;69.07
57904;BME280;43720;47.462;19.030;2023-05-23T08:30:23;99993.41;;;22.68;69.29
57904;BME280;43720;47.462;19.030;2023-05-23T08:33:28;99991.13;;;22.81;67.79
57904;BME280;43720;47.462;19.030;2023-05-23T08:36:31;99985.34;;;22.91;67.23
57904;BME280;43720;47.462;19.030;2023-05-23T08:39:38;99992.28;;;22.95;67.43
57904;BME280;43720;47.462;19.030;2023-05-23T08:42:43;99979.50;;;23.04;66.40
57904;BME280;43720;47.462;19.030;2023-05-23T08:45:48;99983.38;;;23.17;64.26
57904;BME280;43720;47.462;19.030;2023-05-23T08:48:54;99975.91;;;23.25;64.85
57904;BME280;43720;47.462;19.030;2023-05-23T08:52:01;99978.97;;;23.36;65.83
57904;BME280;43720;47.462;19.030;2023-05-23T08:55:04;99980.13;;;23.50;66.50
57904;BME280;43720;47.462;19.030;2023-05-23T08:58:08;99982.53;;;23.56;66.68
57904;BME280;43720;47.462;19.030;2023-05-23T09:01:12;99976.13;;;23.60;65.61
57904;BME280;43720;47.462;19.030;2023-05-23T09:04:15;99979.09;;;23.73;65.22
57904;BME280;43720;47.462;19.030;2023-05-23T09:07:19;99978.84;;;23.79;64.50
57904;BME280;43720;47.462;19.030;2023-05-23T09:10:22;99979.84;;;23.76;61.30
57904;BME280;43720;47.462;19.030;2023-05-23T09:13:25;99983.88;;;23.85;62.58
57904;BME280;43720;47.462;19.030;2023-05-23T09:16:33;99981.38;;;24.01;61.86
57904;BME280;43720;47.462;19.030;2023-05-23T09:19:40;99986.03;;;24.14;62.07
57904;BME280;43720;47.462;19.030;2023-05-23T09:22:47;99978.19;;;24.11;61.26
57904;BME280;43720;47.462;19.030;2023-05-23T09:25:50;99975.00;;;24.03;60.37
57904;BME280;43720;47.462;19.030;2023-05-23T09:28:56;99979.69;;;24.17;62.21
57904;BME280;43720;47.462;19.030;2023-05-23T09:32:09;99980.44;;;24.21;61.74
57904;BME280;43720;47.462;19.030;2023-05-23T09:35:12;99976.28;;;24.32;61.12
57904;BME280;43720;47.462;19.030;2023-05-23T09:38:17;99974.25;;;24.37;60.79
57904;BME280;43720;47.462;19.030;2023-05-23T09:41:22;99971.63;;;24.55;61.42
57904;BME280;43720;47.462;19.030;2023-05-23T09:44:40;99970.87;;;24.70;60.95
57904;BME280;43720;47.462;19.030;2023-05-23T09:47:50;99968.38;;;24.84;60.64
57904;BME280;43720;47.462;19.030;2023-05-23T09:50:53;99970.75;;;24.91;60.48
57904;BME280;43720;47.462;19.030;2023-05-23T09:53:56;99968.78;;;24.94;61.21
57904;BME280;43720;47.462;19.030;2023-05-23T09:56:58;99971.59;;;24.91;61.45
57904;BME280;43720;47.462;19.030;2023-05-23T10:00:03;99962.59;;;24.57;59.19
57904;BME280;43720;47.462;19.030;2023-05-23T10:03:15;99966.62;;;24.83;58.46
57904;BME280;43720;47.462;19.030;2023-05-23T10:06:31;99966.72;;;24.99;56.99
57904;BME280;43720;47.462;19.030;2023-05-23T10:09:38;99957.94;;;25.15;57.47
57904;BME280;43720;47.462;19.030;2023-05-23T10:12:46;99956.56;;;25.23;56.50
57904;BME280;43720;47.462;19.030;2023-05-23T10:15:49;99957.16;;;25.46;58.62
57904;BME280;43720;47.462;19.030;2023-05-23T10:18:56;99955.87;;;25.53;57.43
57904;BME280;43720;47.462;19.030;2023-05-23T10:22:01;99950.72;;;25.66;55.69
57904;BME280;43720;47.462;19.030;2023-05-23T10:25:05;99945.78;;;25.91;53.48
57904;BME280;43720;47.462;19.030;2023-05-23T10:28:12;99949.50;;;26.04;55.12
57904;BME280;43720;47.462;19.030;2023-05-23T10:31:15;99951.03;;;26.24;53.05
57904;BME280;43720;47.462;19.030;2023-05-23T10:34:36;99927.53;;;26.29;50.65
57904;BME280;43720;47.462;19.030;2023-05-23T10:37:48;99924.87;;;26.44;50.69
57904;BME280;43720;47.462;19.030;2023-05-23T10:41:09;99923.50;;;26.37;50.46
57904;BME280;43720;47.462;19.030;2023-05-23T10:44:24;99925.09;;;26.25;52.66
57904;BME280;43720;47.462;19.030;2023-05-23T10:47:28;99941.72;;;25.84;52.43
57904;BME280;43720;47.462;19.030;2023-05-23T10:50:35;99936.25;;;25.85;54.61
57904;BME280;43720;47.462;19.030;2023-05-23T10:53:45;99931.69;;;26.19;55.67
57904;BME280;43720;47.462;19.030;2023-05-23T10:57:02;99922.84;;;26.49;54.33
57904;BME280;43720;47.462;19.030;2023-05-23T11:00:11;99916.59;;;26.78;52.13
57904;BME280;43720;47.462;19.030;2023-05-23T11:03:16;99912.72;;;26.84;49.44
57904;BME280;43720;47.462;19.030;2023-05-23T11:06:38;99920.41;;;27.04;51.50
57904;BME280;43720;47.462;19.030;2023-05-23T11:10:07;99905.22;;;27.76;46.79
57904;BME280;43720;47.462;19.030;2023-05-23T11:13:10;99908.22;;;28.40;46.44
57904;BME280;43720;47.462;19.030;2023-05-23T11:16:26;99895.56;;;29.20;43.73
57904;BME280;43720;47.462;19.030;2023-05-23T11:19:29;99898.19;;;29.46;43.94
57904;BME280;43720;47.462;19.030;2023-05-23T11:22:35;99887.16;;;30.11;40.96
57904;BME280;43720;47.462;19.030;2023-05-23T11:25:39;99885.34;;;31.17;38.13
57904;BME280;43720;47.462;19.030;2023-05-23T11:28:55;99884.75;;;31.14;36.07
57904;BME280;43720;47.462;19.030;2023-05-23T11:31:59;99877.50;;;31.26;38.63
57904;BME280;43720;47.462;19.030;2023-05-23T11:35:07;99876.75;;;31.69;37.08
57904;BME280;43720;47.462;19.030;2023-05-23T11:38:10;99880.34;;;31.47;38.44
57904;BME280;43720;47.462;19.030;2023-05-23T11:41:13;99881.44;;;31.22;38.98
57904;BME280;43720;47.462;19.030;2023-05-23T11:44:15;99872.88;;;29.98;39.50
57904;BME280;43720;47.462;19.030;2023-05-23T11:47:18;99875.81;;;28.94;43.93
57904;BME280;43720;47.462;19.030;2023-05-23T11:50:20;99878.81;;;27.83;45.96
57904;BME280;43720;47.462;19.030;2023-05-23T11:53:26;99866.78;;;27.19;48.90
57904;BME280;43720;47.462;19.030;2023-05-23T11:56:28;99861.88;;;27.54;49.14
57904;BME280;43720;47.462;19.030;2023-05-23T11:59:31;99860.81;;;28.65;48.24
57904;BME280;43720;47.462;19.030;2023-05-23T12:02:38;99851.63;;;29.57;44.14
57904;BME280;43720;47.462;19.030;2023-05-23T12:05:42;99839.47;;;30.60;41.31
57904;BME280;43720;47.462;19.030;2023-05-23T12:08:46;99839.66;;;30.92;40.61
57904;BME280;43720;47.462;19.030;2023-05-23T12:11:48;99820.88;;;31.13;38.19
57904;BME280;43720;47.462;19.030;2023-05-23T12:14:55;99818.81;;;30.83;38.26
57904;BME280;43720;47.462;19.030;2023-05-23T12:17:57;99812.00;;;31.67;38.29
57904;BME280;43720;47.462;19.030;2023-05-23T12:21:04;99809.72;;;32.59;36.06
57904;BME280;43720;47.462;19.030;2023-05-23T12:24:16;99818.75;;;33.21;35.61
57904;BME280;43720;47.462;19.030;2023-05-23T12:27:19;99814.84;;;33.04;33.74
57904;BME280;43720;47.462;19.030;2023-05-23T12:30:22;99802.75;;;33.48;33.05
57904;BME280;43720;47.462;19.030;2023-05-23T12:33:25;99796.25;;;33.80;30.78
57904;BME280;43720;47.462;19.030;2023-05-23T12:36:28;99785.94;;;33.54;31.12
57904;BME280;43720;47.462;19.030;2023-05-23T12:39:35;99785.19;;;32.19;32.97
57904;BME280;43720;47.462;19.030;2023-05-23T12:42:57;99785.22;;;32.39;34.44
57904;BME280;43720;47.462;19.030;2023-05-23T12:45:59;99781.19;;;32.55;34.58
57904;BME280;43720;47.462;19.030;2023-05-23T12:49:02;99777.84;;;33.24;32.86
57904;BME280;43720;47.462;19.030;2023-05-23T12:52:05;99773.13;;;33.16;33.82
57904;BME280;43720;47.462;19.030;2023-05-23T12:55:09;99784.56;;;33.89;30.96
57904;BME280;43720;47.462;19.030;2023-05-23T12:58:11;99781.56;;;32.29;31.37
57904;BME280;43720;47.462;19.030;2023-05-23T13:01:14;99775.84;;;30.91;35.91
57904;BME280;43720;47.462;19.030;2023-05-23T13:04:16;99771.38;;;30.56;36.24
57904;BME280;43720;47.462;19.030;2023-05-23T13:07:19;99760.44;;;30.11;36.31
57904;BME280;43720;47.462;19.030;2023-05-23T13:10:21;99758.56;;;29.53;38.89
57904;BME280;43720;47.462;19.030;2023-05-23T13:13:24;99754.28;;;28.49;39.58
57904;BME280;43720;47.462;19.030;2023-05-23T13:16:27;99761.66;;;28.08;42.66
57904;BME280;43720;47.462;19.030;2023-05-23T13:19:30;99752.53;;;28.36;43.14
57904;BME280;43720;47.462;19.030;2023-05-23T13:22:32;99759.19;;;28.30;42.98
57904;BME280;43720;47.462;19.030;2023-05-23T13:25:35;99755.06;;;27.99;42.91
57904;BME280;43720;47.462;19.030;2023-05-23T13:28:40;99760.19;;;27.62;43.14
57904;BME280;43720;47.462;19.030;2023-05-23T13:31:42;99749.09;;;27.54;42.45
57904;BME280;43720;47.462;19.030;2023-05-23T13:34:44;99739.66;;;27.61;45.12
57904;BME280;43720;47.462;19.030;2023-05-23T13:37:47;99753.88;;;27.49;43.97
57904;BME280;43720;47.462;19.030;2023-05-23T13:40:49;99746.06;;;27.31;42.51
57904;BME280;43720;47.462;19.030;2023-05-23T13:43:52;99750.59;;;27.31;45.39
57904;BME280;43720;47.462;19.030;2023-05-23T13:46:57;99743.69;;;27.27;43.97
57904;BME280;43720;47.462;19.030;2023-05-23T13:49:59;99749.13;;;27.40;44.06
57904;BME280;43720;47.462;19.030;2023-05-23T13:53:02;99752.00;;;27.64;42.64
57904;BME280;43720;47.462;19.030;2023-05-23T13:56:04;99746.62;;;27.78;42.90
57904;BME280;43720;47.462;19.030;2023-05-23T13:59:07;99743.31;;;27.87;41.47
57904;BME280;43720;47.462;19.030;2023-05-23T14:02:09;99749.66;;;27.72;41.58
57904;BME280;43720;47.462;19.030;2023-05-23T14:05:12;99737.03;;;27.47;39.45
57904;BME280;43720;47.462;19.030;2023-05-23T14:08:14;99736.75;;;27.37;41.98
57904;BME280;43720;47.462;19.030;2023-05-23T14:11:17;99727.91;;;27.49;43.21
57904;BME280;43720;47.462;19.030;2023-05-23T14:14:19;99731.88;;;27.56;44.44
57904;BME280;43720;47.462;19.030;2023-05-23T14:17:22;99724.56;;;27.73;41.56
57904;BME280;43720;47.462;19.030;2023-05-23T14:20:25;99721.63;;;27.90;42.02
57904;BME280;43720;47.462;19.030;2023-05-23T14:23:27;99727.44;;;27.97;42.98
57904;BME280;43720;47.462;19.030;2023-05-23T14:26:29;99715.00;;;28.09;39.95
57904;BME280;43720;47.462;19.030;2023-05-23T14:29:32;99710.78;;;28.17;40.66
57904;BME280;43720;47.462;19.030;2023-05-23T14:32:34;99704.03;;;28.24;37.38
57904;BME280;43720;47.462;19.030;2023-05-23T14:35:40;99709.94;;;28.29;37.46
57904;BME280;43720;47.462;19.030;2023-05-23T14:38:44;99707.56;;;28.25;39.12
57904;BME280;43720;47.462;19.030;2023-05-23T14:41:47;99716.16;;;28.30;40.59
57904;BME280;43720;47.462;19.030;2023-05-23T14:44:51;99722.12;;;28.35;41.89
57904;BME280;43720;47.462;19.030;2023-05-23T14:47:54;99714.81;;;28.37;40.79
57904;BME280;43720;47.462;19.030;2023-05-23T14:50:57;99709.66;;;28.47;37.97
57904;BME280;43720;47.462;19.030;2023-05-23T14:54:03;99710.09;;;28.41;38.38
57904;BME280;43720;47.462;19.030;2023-05-23T14:57:06;99708.62;;;28.22;40.00
57904;BME280;43720;47.462;19.030;2023-05-23T15:00:10;99715.53;;;28.14;39.74
57904;BME280;43720;47.462;19.030;2023-05-23T15:03:13;99716.25;;;27.63;41.54
57904;BME280;43720;47.462;19.030;2023-05-23T15:06:16;99718.47;;;27.29;42.75
57904;BME280;43720;47.462;19.030;2023-05-23T15:09:18;99719.69;;;27.65;42.60
57904;BME280;43720;47.462;19.030;2023-05-23T15:12:20;99720.75;;;27.90;41.70
57904;BME280;43720;47.462;19.030;2023-05-23T15:15:23;99718.97;;;28.16;41.31
57904;BME280;43720;47.462;19.030;2023-05-23T15:18:25;99718.00;;;28.29;41.18
57904;BME280;43720;47.462;19.030;2023-05-23T15:21:42;99714.13;;;28.34;40.90
57904;BME280;43720;47.462;19.030;2023-05-23T15:24:52;99710.16;;;28.14;42.43
